sensor_id;sensor_type;location;lat;lon;timestamp;P1;durP1;ratioP1;P2;durP2;ratioP2
71836;SDS011;59686;51.716;7.016;2022-09-03T00:00:07;1.55;;;1.45;;
71836;SDS011;59686;51.716;7.016;2022-09-03T00:08:39;2.03;;;1.55;;
71836;SDS011;59686;51.716;7.016;2022-09-03T00:11:24;1.58;;;1.38;;
71836;SDS011;59686;51.716;7.016;2022-09-03T00:14:18;2.78;;;1.40;;
71836;SDS011;59686;51.716;7.016;2022-09-03T00:17:09;1.48;;;1.35;;
71836;SDS011;59686;51.716;7.016;2022-09-03T00:19:38;3.22;;;1.58;;
71836;SDS011;59686;51.716;7.016;2022-09-03T00:22:13;1.48;;;1.38;;
71836;SDS011;59686;51.716;7.016;2022-09-03T00:24:41;1.40;;;1.30;;
71836;SDS011;59686;51.716;7.016;2022-09-03T00:27:10;1.35;;;1.25;;
71836;SDS011;59686;51.716;7.016;2022-09-03T00:32:25;2.58;;;1.20;;
71836;SDS011;59686;51.716;7.016;2022-09-03T00:34:57;1.55;;;1.38;;
71836;SDS011;59686;51.716;7.016;2022-09-03T00:37:27;3.67;;;1.52;;
71836;SDS011;59686;51.716;7.016;2022-09-03T00:39:57;1.45;;;1.33;;
71836;SDS011;59686;51.716;7.016;2022-09-03T01:04:55;1.58;;;1.48;;
71836;SDS011;59686;51.716;7.016;2022-09-03T01:34:19;1.98;;;1.70;;
71836;SDS011;59686;51.716;7.016;2022-09-03T01:39:28;1.40;;;1.30;;
71836;SDS011;59686;51.716;7.016;2022-09-03T01:45:33;1.77;;;1.38;;
71836;SDS011;59686;51.716;7.016;2022-09-03T01:58:23;3.38;;;1.60;;
71836;SDS011;59686;51.716;7.016;2022-09-03T02:01:09;2.05;;;1.40;;
71836;SDS011;59686;51.716;7.016;2022-09-03T02:03:41;1.73;;;1.48;;
71836;SDS011;59686;51.716;7.016;2022-09-03T02:06:10;2.33;;;1.45;;
71836;SDS011;59686;51.716;7.016;2022-09-03T02:08:36;1.85;;;1.38;;
71836;SDS011;59686;51.716;7.016;2022-09-03T02:11:03;1.45;;;1.27;;
71836;SDS011;59686;51.716;7.016;2022-09-03T02:16:22;1.35;;;1.23;;
71836;SDS011;59686;51.716;7.016;2022-09-03T02:19:06;2.78;;;1.40;;
71836;SDS011;59686;51.716;7.016;2022-09-03T02:21:37;2.38;;;1.40;;
71836;SDS011;59686;51.716;7.016;2022-09-03T02:24:05;2.70;;;1.50;;
71836;SDS011;59686;51.716;7.016;2022-09-03T02:26:32;1.58;;;1.30;;
71836;SDS011;59686;51.716;7.016;2022-09-03T02:29:00;1.98;;;1.48;;
71836;SDS011;59686;51.716;7.016;2022-09-03T02:31:26;3.83;;;1.40;;
71836;SDS011;59686;51.716;7.016;2022-09-03T02:33:52;1.60;;;1.40;;
71836;SDS011;59686;51.716;7.016;2022-09-03T02:36:23;1.38;;;1.27;;
71836;SDS011;59686;51.716;7.016;2022-09-03T02:38:53;1.55;;;1.38;;
71836;SDS011;59686;51.716;7.016;2022-09-03T02:41:19;1.40;;;1.30;;
71836;SDS011;59686;51.716;7.016;2022-09-03T02:43:46;1.35;;;1.25;;
71836;SDS011;59686;51.716;7.016;2022-09-03T02:46:21;1.30;;;1.20;;
71836;SDS011;59686;51.716;7.016;2022-09-03T02:48:50;1.40;;;1.30;;
71836;SDS011;59686;51.716;7.016;2022-09-03T02:51:17;2.65;;;1.42;;
71836;SDS011;59686;51.716;7.016;2022-09-03T02:53:43;1.63;;;1.35;;
71836;SDS011;59686;51.716;7.016;2022-09-03T02:56:09;1.50;;;1.40;;
71836;SDS011;59686;51.716;7.016;2022-09-03T02:58:41;2.13;;;1.30;;
71836;SDS011;59686;51.716;7.016;2022-09-03T03:01:07;1.20;;;1.10;;
71836;SDS011;59686;51.716;7.016;2022-09-03T03:03:32;2.15;;;1.30;;
71836;SDS011;59686;51.716;7.016;2022-09-03T03:05:59;3.00;;;1.30;;
71836;SDS011;59686;51.716;7.016;2022-09-03T03:08:27;2.58;;;1.40;;
71836;SDS011;59686;51.716;7.016;2022-09-03T03:10:55;2.65;;;1.40;;
71836;SDS011;59686;51.716;7.016;2022-09-03T03:13:23;1.60;;;1.30;;
71836;SDS011;59686;51.716;7.016;2022-09-03T03:15:49;1.60;;;1.30;;
71836;SDS011;59686;51.716;7.016;2022-09-03T03:18:15;1.50;;;1.40;;
71836;SDS011;59686;51.716;7.016;2022-09-03T03:20:41;3.22;;;1.30;;
71836;SDS011;59686;51.716;7.016;2022-09-03T03:23:08;2.05;;;1.40;;
71836;SDS011;59686;51.716;7.016;2022-09-03T03:25:37;1.70;;;1.40;;
71836;SDS011;59686;51.716;7.016;2022-09-03T03:28:04;2.22;;;1.20;;
71836;SDS011;59686;51.716;7.016;2022-09-03T03:30:31;1.40;;;1.15;;
71836;SDS011;59686;51.716;7.016;2022-09-03T03:32:57;1.65;;;1.40;;
71836;SDS011;59686;51.716;7.016;2022-09-03T03:35:23;1.55;;;1.20;;
71836;SDS011;59686;51.716;7.016;2022-09-03T03:37:49;3.25;;;1.45;;
71836;SDS011;59686;51.716;7.016;2022-09-03T03:40:15;1.83;;;1.50;;
71836;SDS011;59686;51.716;7.016;2022-09-03T03:42:41;2.90;;;1.40;;
71836;SDS011;59686;51.716;7.016;2022-09-03T03:45:07;1.40;;;1.20;;
71836;SDS011;59686;51.716;7.016;2022-09-03T03:47:34;1.27;;;1.17;;
71836;SDS011;59686;51.716;7.016;2022-09-03T03:50:00;1.30;;;1.20;;
71836;SDS011;59686;51.716;7.016;2022-09-03T03:52:27;1.20;;;1.10;;
71836;SDS011;59686;51.716;7.016;2022-09-03T03:54:53;2.42;;;1.27;;
71836;SDS011;59686;51.716;7.016;2022-09-03T03:57:19;1.77;;;1.30;;
71836;SDS011;59686;51.716;7.016;2022-09-03T03:59:45;2.92;;;1.48;;
71836;SDS011;59686;51.716;7.016;2022-09-03T04:02:12;1.23;;;1.13;;
71836;SDS011;59686;51.716;7.016;2022-09-03T04:04:38;1.67;;;1.23;;
71836;SDS011;59686;51.716;7.016;2022-09-03T04:07:04;1.67;;;1.05;;
71836;SDS011;59686;51.716;7.016;2022-09-03T04:09:30;2.38;;;1.20;;
71836;SDS011;59686;51.716;7.016;2022-09-03T04:11:56;1.88;;;1.15;;
71836;SDS011;59686;51.716;7.016;2022-09-03T04:14:25;1.63;;;1.30;;
71836;SDS011;59686;51.716;7.016;2022-09-03T04:16:51;1.35;;;1.20;;
71836;SDS011;59686;51.716;7.016;2022-09-03T04:19:17;1.17;;;1.08;;
71836;SDS011;59686;51.716;7.016;2022-09-03T04:21:43;2.65;;;1.33;;
71836;SDS011;59686;51.716;7.016;2022-09-03T04:24:09;1.20;;;1.10;;
71836;SDS011;59686;51.716;7.016;2022-09-03T04:26:35;1.50;;;1.40;;
71836;SDS011;59686;51.716;7.016;2022-09-03T04:29:03;1.50;;;1.40;;
71836;SDS011;59686;51.716;7.016;2022-09-03T04:31:30;2.63;;;1.40;;
71836;SDS011;59686;51.716;7.016;2022-09-03T04:33:57;1.60;;;1.13;;
71836;SDS011;59686;51.716;7.016;2022-09-03T04:36:24;1.75;;;1.30;;
71836;SDS011;59686;51.716;7.016;2022-09-03T04:38:52;1.45;;;1.20;;
71836;SDS011;59686;51.716;7.016;2022-09-03T04:41:20;1.20;;;1.10;;
71836;SDS011;59686;51.716;7.016;2022-09-03T04:43:50;1.38;;;1.27;;
71836;SDS011;59686;51.716;7.016;2022-09-03T04:46:21;1.30;;;1.20;;
71836;SDS011;59686;51.716;7.016;2022-09-03T04:48:51;2.33;;;1.27;;
71836;SDS011;59686;51.716;7.016;2022-09-03T04:51:21;2.50;;;1.20;;
71836;SDS011;59686;51.716;7.016;2022-09-03T04:53:52;1.20;;;1.10;;
71836;SDS011;59686;51.716;7.016;2022-09-03T04:56:21;2.17;;;1.30;;
71836;SDS011;59686;51.716;7.016;2022-09-03T04:58:55;1.75;;;1.13;;
71836;SDS011;59686;51.716;7.016;2022-09-03T05:01:23;1.30;;;1.20;;
71836;SDS011;59686;51.716;7.016;2022-09-03T05:03:51;1.80;;;1.30;;
71836;SDS011;59686;51.716;7.016;2022-09-03T05:06:18;1.85;;;1.30;;
71836;SDS011;59686;51.716;7.016;2022-09-03T05:08:47;2.03;;;1.15;;
71836;SDS011;59686;51.716;7.016;2022-09-03T05:11:13;2.60;;;1.20;;
71836;SDS011;59686;51.716;7.016;2022-09-03T05:13:40;1.15;;;1.05;;
71836;SDS011;59686;51.716;7.016;2022-09-03T05:16:07;1.42;;;1.05;;
71836;SDS011;59686;51.716;7.016;2022-09-03T05:18:34;1.30;;;1.20;;
71836;SDS011;59686;51.716;7.016;2022-09-03T05:21:02;1.25;;;1.15;;
71836;SDS011;59686;51.716;7.016;2022-09-03T05:23:36;1.00;;;0.95;;
71836;SDS011;59686;51.716;7.016;2022-09-03T05:26:05;1.73;;;1.30;;
71836;SDS011;59686;51.716;7.016;2022-09-03T05:28:33;1.10;;;1.00;;
71836;SDS011;59686;51.716;7.016;2022-09-03T05:31:18;1.20;;;1.10;;
71836;SDS011;59686;51.716;7.016;2022-09-03T05:33:45;1.25;;;1.15;;
71836;SDS011;59686;51.716;7.016;2022-09-03T05:36:14;1.63;;;1.20;;
71836;SDS011;59686;51.716;7.016;2022-09-03T05:38:41;1.30;;;1.20;;
71836;SDS011;59686;51.716;7.016;2022-09-03T05:41:09;1.30;;;1.20;;
71836;SDS011;59686;51.716;7.016;2022-09-03T05:43:36;1.23;;;1.13;;
71836;SDS011;59686;51.716;7.016;2022-09-03T05:46:06;1.30;;;1.20;;
71836;SDS011;59686;51.716;7.016;2022-09-03T05:48:34;2.17;;;1.20;;
71836;SDS011;59686;51.716;7.016;2022-09-03T05:51:05;1.15;;;1.05;;
71836;SDS011;59686;51.716;7.016;2022-09-03T05:53:36;2.05;;;1.27;;
71836;SDS011;59686;51.716;7.016;2022-09-03T05:56:04;1.23;;;1.13;;
71836;SDS011;59686;51.716;7.016;2022-09-03T05:58:32;1.92;;;1.40;;
71836;SDS011;59686;51.716;7.016;2022-09-03T06:00:59;1.92;;;1.00;;
71836;SDS011;59686;51.716;7.016;2022-09-03T06:03:40;2.47;;;1.20;;
71836;SDS011;59686;51.716;7.016;2022-09-03T06:06:06;1.40;;;1.30;;
71836;SDS011;59686;51.716;7.016;2022-09-03T06:08:33;1.35;;;1.25;;
71836;SDS011;59686;51.716;7.016;2022-09-03T06:10:59;2.05;;;1.40;;
71836;SDS011;59686;51.716;7.016;2022-09-03T06:13:28;1.20;;;1.10;;
71836;SDS011;59686;51.716;7.016;2022-09-03T06:15:55;1.58;;;1.20;;
71836;SDS011;59686;51.716;7.016;2022-09-03T06:18:22;2.15;;;1.10;;
71836;SDS011;59686;51.716;7.016;2022-09-03T06:20:55;1.55;;;1.23;;
71836;SDS011;59686;51.716;7.016;2022-09-03T06:23:26;3.28;;;1.20;;
71836;SDS011;59686;51.716;7.016;2022-09-03T06:28:30;1.15;;;1.02;;
71836;SDS011;59686;51.716;7.016;2022-09-03T06:30:58;1.27;;;1.17;;
71836;SDS011;59686;51.716;7.016;2022-09-03T06:33:25;1.33;;;1.10;;
71836;SDS011;59686;51.716;7.016;2022-09-03T06:35:52;2.45;;;1.20;;
71836;SDS011;59686;51.716;7.016;2022-09-03T06:38:21;2.33;;;1.20;;
71836;SDS011;59686;51.716;7.016;2022-09-03T06:40:55;1.48;;;1.30;;
71836;SDS011;59686;51.716;7.016;2022-09-03T06:43:22;3.30;;;1.20;;
71836;SDS011;59686;51.716;7.016;2022-09-03T06:45:52;0.95;;;0.90;;
71836;SDS011;59686;51.716;7.016;2022-09-03T06:48:19;2.00;;;1.20;;
71836;SDS011;59686;51.716;7.016;2022-09-03T06:50:54;1.75;;;1.30;;
71836;SDS011;59686;51.716;7.016;2022-09-03T06:53:40;2.50;;;1.27;;
71836;SDS011;59686;51.716;7.016;2022-09-03T06:56:14;1.98;;;0.98;;
71836;SDS011;59686;51.716;7.016;2022-09-03T06:58:45;1.33;;;1.20;;
71836;SDS011;59686;51.716;7.016;2022-09-03T07:01:14;1.50;;;1.30;;
71836;SDS011;59686;51.716;7.016;2022-09-03T07:03:42;1.30;;;1.20;;
71836;SDS011;59686;51.716;7.016;2022-09-03T07:06:10;1.10;;;0.98;;
71836;SDS011;59686;51.716;7.016;2022-09-03T07:08:38;1.48;;;1.00;;
71836;SDS011;59686;51.716;7.016;2022-09-03T07:11:04;3.03;;;1.20;;
71836;SDS011;59686;51.716;7.016;2022-09-03T07:13:51;2.38;;;1.20;;
71836;SDS011;59686;51.716;7.016;2022-09-03T07:16:21;1.83;;;1.30;;
71836;SDS011;59686;51.716;7.016;2022-09-03T07:18:48;1.88;;;1.42;;
71836;SDS011;59686;51.716;7.016;2022-09-03T07:21:15;2.42;;;1.20;;
71836;SDS011;59686;51.716;7.016;2022-09-03T07:23:43;1.27;;;1.15;;
71836;SDS011;59686;51.716;7.016;2022-09-03T07:26:10;2.28;;;1.20;;
71836;SDS011;59686;51.716;7.016;2022-09-03T07:28:44;1.65;;;1.20;;
71836;SDS011;59686;51.716;7.016;2022-09-03T07:31:12;1.23;;;1.13;;
71836;SDS011;59686;51.716;7.016;2022-09-03T07:33:39;1.40;;;1.30;;
71836;SDS011;59686;51.716;7.016;2022-09-03T07:36:09;2.58;;;1.20;;
71836;SDS011;59686;51.716;7.016;2022-09-03T07:38:38;1.65;;;1.55;;
71836;SDS011;59686;51.716;7.016;2022-09-03T07:41:05;2.03;;;1.33;;
71836;SDS011;59686;51.716;7.016;2022-09-03T07:43:34;3.17;;;1.50;;
71836;SDS011;59686;51.716;7.016;2022-09-03T07:46:04;2.13;;;1.65;;
71836;SDS011;59686;51.716;7.016;2022-09-03T07:48:40;1.85;;;1.50;;
71836;SDS011;59686;51.716;7.016;2022-09-03T07:51:07;3.40;;;1.50;;
71836;SDS011;59686;51.716;7.016;2022-09-03T07:53:34;3.72;;;1.33;;
71836;SDS011;59686;51.716;7.016;2022-09-03T07:56:07;3.88;;;1.60;;
71836;SDS011;59686;51.716;7.016;2022-09-03T07:58:34;2.90;;;1.42;;
71836;SDS011;59686;51.716;7.016;2022-09-03T08:01:22;2.45;;;1.50;;
71836;SDS011;59686;51.716;7.016;2022-09-03T08:03:49;1.75;;;1.33;;
71836;SDS011;59686;51.716;7.016;2022-09-03T08:06:17;2.03;;;1.30;;
71836;SDS011;59686;51.716;7.016;2022-09-03T08:08:45;2.80;;;1.20;;
71836;SDS011;59686;51.716;7.016;2022-09-03T10:27:30;2.00;;;1.40;;
71836;SDS011;59686;51.716;7.016;2022-09-03T10:29:57;3.35;;;1.42;;
71836;SDS011;59686;51.716;7.016;2022-09-03T10:37:44;2.50;;;1.52;;
71836;SDS011;59686;51.716;7.016;2022-09-03T10:51:27;2.13;;;1.50;;
71836;SDS011;59686;51.716;7.016;2022-09-03T10:59:55;3.35;;;1.50;;
71836;SDS011;59686;51.716;7.016;2022-09-03T11:04:59;1.58;;;1.30;;
71836;SDS011;59686;51.716;7.016;2022-09-03T11:07:58;2.15;;;1.77;;
71836;SDS011;59686;51.716;7.016;2022-09-03T11:10:43;2.75;;;1.58;;
71836;SDS011;59686;51.716;7.016;2022-09-03T11:13:16;1.70;;;1.60;;
71836;SDS011;59686;51.716;7.016;2022-09-03T11:15:57;1.67;;;1.58;;
71836;SDS011;59686;51.716;7.016;2022-09-03T11:27:01;1.95;;;1.70;;
71836;SDS011;59686;51.716;7.016;2022-09-03T11:29:41;4.55;;;1.73;;
71836;SDS011;59686;51.716;7.016;2022-09-03T11:32:26;2.42;;;1.80;;
71836;SDS011;59686;51.716;7.016;2022-09-03T11:35:24;2.92;;;1.58;;
71836;SDS011;59686;51.716;7.016;2022-09-03T11:37:57;2.47;;;1.85;;
71836;SDS011;59686;51.716;7.016;2022-09-03T11:40:33;1.90;;;1.50;;
71836;SDS011;59686;51.716;7.016;2022-09-03T11:43:34;1.85;;;1.42;;
71836;SDS011;59686;51.716;7.016;2022-09-03T11:46:01;2.25;;;1.80;;
71836;SDS011;59686;51.716;7.016;2022-09-03T11:51:03;4.32;;;1.98;;
71836;SDS011;59686;51.716;7.016;2022-09-03T11:53:33;3.30;;;2.08;;
71836;SDS011;59686;51.716;7.016;2022-09-03T11:56:11;3.38;;;1.60;;
71836;SDS011;59686;51.716;7.016;2022-09-03T12:01:43;1.73;;;1.63;;
71836;SDS011;59686;51.716;7.016;2022-09-03T12:04:18;2.20;;;1.80;;
71836;SDS011;59686;51.716;7.016;2022-09-03T12:06:56;3.00;;;1.55;;
71836;SDS011;59686;51.716;7.016;2022-09-03T12:18:06;2.58;;;1.80;;
71836;SDS011;59686;51.716;7.016;2022-09-03T12:21:05;2.00;;;1.77;;
71836;SDS011;59686;51.716;7.016;2022-09-03T12:23:33;2.20;;;2.00;;
71836;SDS011;59686;51.716;7.016;2022-09-03T12:29:05;2.08;;;1.88;;
71836;SDS011;59686;51.716;7.016;2022-09-03T12:31:44;2.65;;;1.85;;
71836;SDS011;59686;51.716;7.016;2022-09-03T12:34:16;1.88;;;1.70;;
71836;SDS011;59686;51.716;7.016;2022-09-03T12:36:48;1.83;;;1.50;;
71836;SDS011;59686;51.716;7.016;2022-09-03T12:42:01;3.40;;;1.85;;
71836;SDS011;59686;51.716;7.016;2022-09-03T12:47:04;3.28;;;1.65;;
71836;SDS011;59686;51.716;7.016;2022-09-03T12:58:35;2.00;;;1.60;;
71836;SDS011;59686;51.716;7.016;2022-09-03T13:01:23;2.55;;;1.65;;
71836;SDS011;59686;51.716;7.016;2022-09-03T13:06:47;1.77;;;1.65;;
71836;SDS011;59686;51.716;7.016;2022-09-03T13:09:24;2.28;;;1.75;;
71836;SDS011;59686;51.716;7.016;2022-09-03T13:11:54;1.80;;;1.70;;
71836;SDS011;59686;51.716;7.016;2022-09-03T13:14:20;2.15;;;1.70;;
71836;SDS011;59686;51.716;7.016;2022-09-03T13:16:49;1.90;;;1.80;;
71836;SDS011;59686;51.716;7.016;2022-09-03T13:22:52;3.78;;;1.85;;
71836;SDS011;59686;51.716;7.016;2022-09-03T13:25:36;3.67;;;2.00;;
71836;SDS011;59686;51.716;7.016;2022-09-03T13:31:34;6.68;;;2.33;;
71836;SDS011;59686;51.716;7.016;2022-09-03T13:34:06;2.75;;;2.10;;
71836;SDS011;59686;51.716;7.016;2022-09-03T13:39:29;2.88;;;2.20;;
71836;SDS011;59686;51.716;7.016;2022-09-03T13:42:12;4.25;;;2.20;;
71836;SDS011;59686;51.716;7.016;2022-09-03T13:44:48;3.63;;;2.10;;
71836;SDS011;59686;51.716;7.016;2022-09-03T13:53:46;3.83;;;2.15;;
71836;SDS011;59686;51.716;7.016;2022-09-03T13:56:34;4.05;;;1.98;;
71836;SDS011;59686;51.716;7.016;2022-09-03T13:59:24;4.78;;;2.15;;
71836;SDS011;59686;51.716;7.016;2022-09-03T14:04:50;5.20;;;2.40;;
71836;SDS011;59686;51.716;7.016;2022-09-03T14:07:27;3.38;;;2.50;;
71836;SDS011;59686;51.716;7.016;2022-09-03T14:10:18;5.07;;;2.20;;
71836;SDS011;59686;51.716;7.016;2022-09-03T14:15:26;6.15;;;2.28;;
71836;SDS011;59686;51.716;7.016;2022-09-03T14:21:28;2.95;;;2.00;;
71836;SDS011;59686;51.716;7.016;2022-09-03T14:23:58;2.47;;;2.13;;
71836;SDS011;59686;51.716;7.016;2022-09-03T14:26:34;3.22;;;2.30;;
71836;SDS011;59686;51.716;7.016;2022-09-03T14:29:23;4.00;;;2.40;;
71836;SDS011;59686;51.716;7.016;2022-09-03T14:34:34;3.65;;;2.40;;
71836;SDS011;59686;51.716;7.016;2022-09-03T14:39:54;3.15;;;2.30;;
71836;SDS011;59686;51.716;7.016;2022-09-03T14:56:21;3.20;;;2.10;;
71836;SDS011;59686;51.716;7.016;2022-09-03T15:04:50;3.13;;;2.17;;
71836;SDS011;59686;51.716;7.016;2022-09-03T15:13:34;4.00;;;2.10;;
71836;SDS011;59686;51.716;7.016;2022-09-03T15:30:07;4.25;;;2.22;;
71836;SDS011;59686;51.716;7.016;2022-09-03T15:41:33;4.60;;;2.35;;
71836;SDS011;59686;51.716;7.016;2022-09-03T15:44:20;2.50;;;2.30;;
71836;SDS011;59686;51.716;7.016;2022-09-03T15:51:57;2.58;;;2.15;;
71836;SDS011;59686;51.716;7.016;2022-09-03T15:54:31;2.22;;;1.95;;
71836;SDS011;59686;51.716;7.016;2022-09-03T16:00:20;2.70;;;2.50;;
71836;SDS011;59686;51.716;7.016;2022-09-03T16:02:51;2.45;;;2.25;;
71836;SDS011;59686;51.716;7.016;2022-09-03T16:14:04;2.95;;;2.30;;
71836;SDS011;59686;51.716;7.016;2022-09-03T16:16:58;4.40;;;2.55;;
71836;SDS011;59686;51.716;7.016;2022-09-03T16:22:16;3.08;;;2.65;;
71836;SDS011;59686;51.716;7.016;2022-09-03T16:25:01;3.70;;;2.60;;
71836;SDS011;59686;51.716;7.016;2022-09-03T16:28:23;4.28;;;2.42;;
71836;SDS011;59686;51.716;7.016;2022-09-03T16:33:46;2.38;;;2.17;;
71836;SDS011;59686;51.716;7.016;2022-09-03T16:39:12;4.00;;;2.10;;
71836;SDS011;59686;51.716;7.016;2022-09-03T16:50:37;2.70;;;2.45;;
71836;SDS011;59686;51.716;7.016;2022-09-03T16:59:08;3.13;;;2.58;;
71836;SDS011;59686;51.716;7.016;2022-09-03T17:04:34;3.20;;;2.55;;
71836;SDS011;59686;51.716;7.016;2022-09-03T17:13:01;3.15;;;2.50;;
71836;SDS011;59686;51.716;7.016;2022-09-03T17:15:52;3.83;;;2.42;;
71836;SDS011;59686;51.716;7.016;2022-09-03T17:26:33;4.97;;;2.83;;
71836;SDS011;59686;51.716;7.016;2022-09-03T17:35:11;2.63;;;2.42;;
71836;SDS011;59686;51.716;7.016;2022-09-03T17:49:13;2.80;;;2.60;;
71836;SDS011;59686;51.716;7.016;2022-09-03T17:51:57;2.58;;;2.38;;
71836;SDS011;59686;51.716;7.016;2022-09-03T17:57:23;3.13;;;2.47;;
71836;SDS011;59686;51.716;7.016;2022-09-03T18:00:06;3.85;;;2.60;;
71836;SDS011;59686;51.716;7.016;2022-09-03T18:11:17;19.83;;;3.63;;
71836;SDS011;59686;51.716;7.016;2022-09-03T18:19:33;19.33;;;4.25;;
71836;SDS011;59686;51.716;7.016;2022-09-03T18:22:19;15.15;;;3.50;;
71836;SDS011;59686;51.716;7.016;2022-09-03T18:25:08;13.23;;;3.40;;
71836;SDS011;59686;51.716;7.016;2022-09-03T18:27:57;9.98;;;2.85;;
71836;SDS011;59686;51.716;7.016;2022-09-03T18:30:47;9.88;;;3.13;;
71836;SDS011;59686;51.716;7.016;2022-09-03T18:33:32;11.32;;;3.20;;
71836;SDS011;59686;51.716;7.016;2022-09-03T18:36:16;9.40;;;2.70;;
71836;SDS011;59686;51.716;7.016;2022-09-03T18:39:46;11.52;;;2.88;;
71836;SDS011;59686;51.716;7.016;2022-09-03T18:45:45;11.95;;;3.03;;
71836;SDS011;59686;51.716;7.016;2022-09-03T18:52:20;6.65;;;2.50;;
71836;SDS011;59686;51.716;7.016;2022-09-03T18:55:35;6.40;;;2.00;;
71836;SDS011;59686;51.716;7.016;2022-09-03T19:04:59;7.97;;;2.38;;
71836;SDS011;59686;51.716;7.016;2022-09-03T19:14:26;2.78;;;2.00;;
71836;SDS011;59686;51.716;7.016;2022-09-03T19:23:58;5.25;;;2.00;;
71836;SDS011;59686;51.716;7.016;2022-09-03T19:55:58;7.15;;;2.03;;
71836;SDS011;59686;51.716;7.016;2022-09-03T19:58:57;3.05;;;2.00;;
71836;SDS011;59686;51.716;7.016;2022-09-03T20:01:57;3.55;;;2.00;;
71836;SDS011;59686;51.716;7.016;2022-09-03T20:04:45;2.35;;;1.98;;
71836;SDS011;59686;51.716;7.016;2022-09-03T20:07:34;2.95;;;2.00;;
71836;SDS011;59686;51.716;7.016;2022-09-03T20:10:19;3.78;;;2.10;;
71836;SDS011;59686;51.716;7.016;2022-09-03T20:12:51;3.03;;;2.10;;
71836;SDS011;59686;51.716;7.016;2022-09-03T20:15:25;2.80;;;2.10;;
71836;SDS011;59686;51.716;7.016;2022-09-03T20:31:49;3.40;;;1.90;;
71836;SDS011;59686;51.716;7.016;2022-09-03T20:34:44;2.92;;;1.88;;
71836;SDS011;59686;51.716;7.016;2022-09-03T20:43:23;2.67;;;1.90;;
71836;SDS011;59686;51.716;7.016;2022-09-03T20:51:28;2.13;;;1.90;;
71836;SDS011;59686;51.716;7.016;2022-09-03T21:05:21;2.47;;;1.90;;
71836;SDS011;59686;51.716;7.016;2022-09-03T21:11:14;2.05;;;1.90;;
71836;SDS011;59686;51.716;7.016;2022-09-03T21:19:48;2.00;;;1.80;;
71836;SDS011;59686;51.716;7.016;2022-09-03T21:22:56;2.75;;;2.03;;
71836;SDS011;59686;51.716;7.016;2022-09-03T21:25:29;3.78;;;2.22;;
71836;SDS011;59686;51.716;7.016;2022-09-03T21:30:49;3.60;;;2.20;;
71836;SDS011;59686;51.716;7.016;2022-09-03T21:33:27;2.40;;;2.20;;
71836;SDS011;59686;51.716;7.016;2022-09-03T21:38:52;2.28;;;2.08;;
71836;SDS011;59686;51.716;7.016;2022-09-03T21:41:33;3.78;;;2.25;;
71836;SDS011;59686;51.716;7.016;2022-09-03T21:44:49;2.42;;;2.10;;
71836;SDS011;59686;51.716;7.016;2022-09-03T21:47:10;2.22;;;2.03;;
71836;SDS011;59686;51.716;7.016;2022-09-03T21:55:20;2.75;;;1.95;;
71836;SDS011;59686;51.716;7.016;2022-09-03T21:58:01;3.42;;;2.00;;
71836;SDS011;59686;51.716;7.016;2022-09-03T22:00:54;2.10;;;1.90;;
71836;SDS011;59686;51.716;7.016;2022-09-03T22:03:31;2.38;;;1.90;;
71836;SDS011;59686;51.716;7.016;2022-09-03T22:06:05;2.17;;;1.98;;
71836;SDS011;59686;51.716;7.016;2022-09-03T22:08:41;2.78;;;1.83;;
71836;SDS011;59686;51.716;7.016;2022-09-03T22:11:21;1.73;;;1.63;;
71836;SDS011;59686;51.716;7.016;2022-09-03T22:14:06;3.58;;;1.90;;
71836;SDS011;59686;51.716;7.016;2022-09-03T22:16:38;1.80;;;1.70;;
71836;SDS011;59686;51.716;7.016;2022-09-03T22:19:09;2.05;;;1.85;;
71836;SDS011;59686;51.716;7.016;2022-09-03T22:27:25;2.00;;;1.90;;
71836;SDS011;59686;51.716;7.016;2022-09-03T22:35:33;1.92;;;1.75;;
71836;SDS011;59686;51.716;7.016;2022-09-03T22:44:12;2.55;;;1.77;;
71836;SDS011;59686;51.716;7.016;2022-09-03T22:47:09;2.38;;;2.08;;
71836;SDS011;59686;51.716;7.016;2022-09-03T22:50:00;1.90;;;1.80;;
71836;SDS011;59686;51.716;7.016;2022-09-03T22:52:33;2.00;;;1.90;;
71836;SDS011;59686;51.716;7.016;2022-09-03T22:55:11;2.35;;;2.10;;
71836;SDS011;59686;51.716;7.016;2022-09-03T22:57:45;1.92;;;1.70;;
71836;SDS011;59686;51.716;7.016;2022-09-03T23:00:24;2.10;;;1.90;;
71836;SDS011;59686;51.716;7.016;2022-09-03T23:03:05;2.08;;;1.88;;
71836;SDS011;59686;51.716;7.016;2022-09-03T23:08:07;1.98;;;1.80;;
71836;SDS011;59686;51.716;7.016;2022-09-03T23:13:55;3.25;;;1.85;;
71836;SDS011;59686;51.716;7.016;2022-09-03T23:16:28;2.03;;;1.83;;
71836;SDS011;59686;51.716;7.016;2022-09-03T23:19:05;2.85;;;2.10;;
71836;SDS011;59686;51.716;7.016;2022-09-03T23:22:00;2.40;;;2.20;;
71836;SDS011;59686;51.716;7.016;2022-09-03T23:24:37;2.40;;;2.03;;
71836;SDS011;59686;51.716;7.016;2022-09-03T23:27:08;2.28;;;2.08;;
71836;SDS011;59686;51.716;7.016;2022-09-03T23:29:43;3.10;;;2.33;;
71836;SDS011;59686;51.716;7.016;2022-09-03T23:32:12;2.30;;;2.10;;
71836;SDS011;59686;51.716;7.016;2022-09-03T23:34:46;2.58;;;2.35;;
